createdAt,value
2018-08-18T00:00:50.680Z,21.22
2018-08-18T00:02:49.767Z,21.18
2018-08-18T00:04:50.500Z,21.12
2018-08-18T00:06:49.780Z,21.08
2018-08-18T00:08:49.976Z,20.98
2018-08-18T00:10:49.972Z,20.98
2018-08-18T00:12:50.019Z,20.86
2018-08-18T00:14:50.050Z,20.79
2018-08-18T00:16:50.421Z,20.75
2018-08-18T00:18:50.564Z,20.69
2018-08-18T00:20:50.610Z,20.63
2018-08-18T00:22:49.714Z,20.58
2018-08-18T00:24:49.790Z,20.57
2018-08-18T00:26:50.135Z,20.51
2018-08-18T00:28:50.214Z,20.50
2018-08-18T00:30:50.283Z,20.47
2018-08-18T00:32:50.365Z,20.45
2018-08-18T00:34:49.946Z,20.44
2018-08-18T00:36:50.324Z,20.42
2018-08-18T00:38:50.478Z,20.41
2018-08-18T00:40:50.513Z,20.38
2018-08-18T00:42:50.603Z,20.38
2018-08-18T00:44:49.782Z,20.37
2018-08-18T00:46:50.089Z,20.37
2018-08-18T00:48:50.098Z,20.37
2018-08-18T00:50:50.088Z,20.37
2018-08-18T00:52:50.100Z,20.33
2018-08-18T00:54:50.200Z,20.33
2018-08-18T00:56:50.464Z,20.34
2018-08-18T00:58:50.443Z,20.35
2018-08-18T01:00:50.601Z,20.36
2018-08-18T01:02:49.752Z,20.35
2018-08-18T01:04:50.369Z,20.35
2018-08-18T01:06:50.643Z,20.33
2018-08-18T01:08:50.625Z,20.32
2018-08-18T01:10:51.015Z,20.30
2018-08-18T01:12:50.417Z,20.30
2018-08-18T01:14:51.128Z,20.27
2018-08-18T01:16:50.497Z,20.27
2018-08-18T01:18:50.492Z,20.24
2018-08-18T01:20:50.628Z,20.21
2018-08-18T01:22:49.790Z,20.15
2018-08-18T01:24:49.911Z,20.13
2018-08-18T01:26:50.177Z,20.06
2018-08-18T01:28:50.207Z,20.02
2018-08-18T01:30:50.282Z,19.99
2018-08-18T01:32:50.416Z,19.96
2018-08-18T01:34:50.182Z,19.95
2018-08-18T01:36:50.555Z,19.92
2018-08-18T01:38:50.583Z,19.90
2018-08-18T01:40:50.629Z,19.89
2018-08-18T01:42:50.620Z,19.87
2018-08-18T01:44:49.788Z,19.83
2018-08-18T01:46:50.080Z,19.81
2018-08-18T01:48:50.126Z,19.75
2018-08-18T01:50:50.225Z,19.68
2018-08-18T01:52:50.260Z,19.64
2018-08-18T01:54:50.428Z,19.64
2018-08-18T01:56:49.702Z,19.64
2018-08-18T01:58:49.765Z,19.63
2018-08-18T02:00:49.820Z,19.59
2018-08-18T02:02:49.923Z,19.56
2018-08-18T02:04:50.388Z,19.53
2018-08-18T02:06:49.723Z,19.50
2018-08-18T02:08:50.594Z,19.43
2018-08-18T02:10:50.630Z,19.39
2018-08-18T02:12:50.687Z,19.39
2018-08-18T02:14:49.773Z,19.36
2018-08-18T02:16:50.144Z,19.36
2018-08-18T02:18:50.151Z,19.28
2018-08-18T02:20:50.200Z,19.26
2018-08-18T02:22:50.358Z,19.22
2018-08-18T02:24:50.570Z,19.22
2018-08-18T02:26:50.095Z,19.12
2018-08-18T02:28:50.175Z,19.10
2018-08-18T02:30:50.228Z,19.15
2018-08-18T02:32:50.373Z,19.17
2018-08-18T02:34:49.975Z,19.21
2018-08-18T02:36:50.236Z,19.24
2018-08-18T02:38:50.272Z,19.25
2018-08-18T02:40:50.426Z,19.27
2018-08-18T02:42:50.514Z,19.28
2018-08-18T02:44:50.566Z,19.30
2018-08-18T02:46:49.928Z,19.30
2018-08-18T02:48:49.991Z,19.31
2018-08-18T02:50:50.141Z,19.29
2018-08-18T02:52:50.163Z,19.27
2018-08-18T02:54:50.447Z,19.26
2018-08-18T02:56:49.756Z,19.26
2018-08-18T02:58:49.797Z,19.26
2018-08-18T03:00:49.827Z,19.25
2018-08-18T03:02:49.863Z,19.26
2018-08-18T03:04:50.540Z,19.27
2018-08-18T03:06:50.561Z,19.28
2018-08-18T03:08:50.671Z,19.28
2018-08-18T03:10:49.762Z,19.27
2018-08-18T03:12:49.836Z,19.27
2018-08-18T03:14:49.945Z,19.27
2018-08-18T03:16:50.289Z,19.29
2018-08-18T03:18:50.423Z,19.31
2018-08-18T03:20:49.819Z,19.31
2018-08-18T03:22:49.892Z,19.30
2018-08-18T03:24:49.911Z,19.29
2018-08-18T03:26:50.388Z,19.30
2018-08-18T03:28:50.085Z,19.29
2018-08-18T03:30:50.137Z,19.29
2018-08-18T03:32:50.177Z,19.29
2018-08-18T03:34:49.711Z,19.29
2018-08-18T03:36:50.027Z,19.28
2018-08-18T03:38:50.144Z,19.26
2018-08-18T03:40:50.246Z,19.28
2018-08-18T03:42:50.451Z,19.29
2018-08-18T03:44:50.567Z,19.30
2018-08-18T03:46:49.983Z,19.30
2018-08-18T03:48:50.099Z,19.3
2018-08-18T03:50:50.175Z,19.30
2018-08-18T03:52:50.242Z,19.30
2018-08-18T03:54:50.388Z,19.27
2018-08-18T03:56:49.938Z,19.24
2018-08-18T03:58:49.944Z,19.23
2018-08-18T04:00:49.888Z,19.23
2018-08-18T04:02:49.908Z,19.22
2018-08-18T04:04:50.406Z,19.21
2018-08-18T04:06:49.737Z,19.20
2018-08-18T04:08:49.749Z,19.20
2018-08-18T04:10:49.718Z,19.20
2018-08-18T04:12:49.886Z,19.20
2018-08-18T04:14:50.131Z,19.21
2018-08-18T04:16:50.494Z,19.21
2018-08-18T04:18:50.785Z,19.21
2018-08-18T04:20:49.889Z,19.20
2018-08-18T04:22:49.923Z,19.18
2018-08-18T04:24:50.115Z,19.15
2018-08-18T04:26:49.853Z,19.15
2018-08-18T04:28:49.841Z,19.13
2018-08-18T04:30:49.941Z,19.12
2018-08-18T04:32:50.209Z,19.12
2018-08-18T04:34:49.816Z,19.10
2018-08-18T04:36:50.126Z,19.10
2018-08-18T04:38:50.316Z,19.09
2018-08-18T04:40:50.363Z,19.08
2018-08-18T04:42:50.523Z,19.07
2018-08-18T04:44:50.672Z,19.06
2018-08-18T04:46:50.179Z,19.06
2018-08-18T04:48:50.249Z,19.06
2018-08-18T04:50:50.258Z,19.06
2018-08-18T04:52:50.311Z,19.07
2018-08-18T04:54:50.484Z,19.10
2018-08-18T04:56:50.048Z,19.11
2018-08-18T04:58:50.191Z,19.13
2018-08-18T05:00:50.397Z,19.15
2018-08-18T05:02:50.477Z,19.19
2018-08-18T05:04:50.139Z,19.23
2018-08-18T05:06:50.421Z,19.25
2018-08-18T05:08:50.749Z,19.27
2018-08-18T05:10:49.972Z,19.30
2018-08-18T05:12:50.010Z,19.31
2018-08-18T05:14:50.072Z,19.31
2018-08-18T05:16:50.358Z,19.31
2018-08-18T05:18:50.572Z,19.35
2018-08-18T05:20:49.813Z,19.36
2018-08-18T05:22:50.095Z,19.35
2018-08-18T05:24:50.131Z,19.32
2018-08-18T05:26:50.396Z,19.35
2018-08-18T05:28:50.534Z,19.37
2018-08-18T05:30:49.825Z,19.38
2018-08-18T05:32:50.047Z,19.4
2018-08-18T05:34:50.582Z,19.4
2018-08-18T05:36:50.334Z,19.4
2018-08-18T05:38:50.411Z,19.5
2018-08-18T05:40:50.628Z,19.5
2018-08-18T05:42:49.808Z,19.6
2018-08-18T05:44:49.939Z,19.6
2018-08-18T05:46:50.153Z,19.6
2018-08-18T05:48:50.210Z,19.7
2018-08-18T05:50:50.540Z,19.8
2018-08-18T05:52:50.660Z,19.8
2018-08-18T05:54:50.657Z,19.8
2018-08-18T05:56:49.895Z,19.9
2018-08-18T05:58:50.033Z,20.0
2018-08-18T06:00:50.176Z,20.0
2018-08-18T06:02:50.269Z,20.1
2018-08-18T06:04:49.901Z,20.1
2018-08-18T06:06:50.176Z,20.2
2018-08-18T06:08:50.241Z,20.2
2018-08-18T06:10:50.430Z,20.2
2018-08-18T06:12:50.620Z,20.2
2018-08-18T06:14:50.647Z,20.3
2018-08-18T06:16:49.946Z,20.2
2018-08-18T06:18:50.029Z,20.4
2018-08-18T06:20:50.197Z,20.4
2018-08-18T06:22:50.240Z,20.4
2018-08-18T06:24:50.283Z,20.4
2018-08-18T06:26:50.534Z,20.4
2018-08-18T06:28:50.566Z,20.4
2018-08-18T06:30:49.727Z,20.4
2018-08-18T06:32:49.775Z,20.38
2018-08-18T06:34:51.085Z,20.32
2018-08-18T06:36:49.773Z,20.15
2018-08-18T06:38:49.994Z,20.11
2018-08-18T06:40:50.144Z,19.99
2018-08-18T06:42:50.185Z,19.97
2018-08-18T06:44:50.208Z,20.01
2018-08-18T06:46:50.578Z,20.02
2018-08-18T06:48:49.756Z,20.01
2018-08-18T06:50:50.037Z,19.93
2018-08-18T06:52:50.120Z,19.91
2018-08-18T06:54:50.971Z,19.90
2018-08-18T06:56:50.595Z,19.92
2018-08-18T06:58:49.787Z,19.99
2018-08-18T07:00:50.026Z,19.99
2018-08-18T07:02:50.074Z,20.22
2018-08-18T07:04:50.561Z,20.33
2018-08-18T07:06:49.814Z,20.36
2018-08-18T07:08:49.900Z,20.36
2018-08-18T07:10:50.148Z,20.51
2018-08-18T07:12:50.214Z,20.53
2018-08-18T07:14:50.248Z,20.7
2018-08-18T07:16:50.517Z,20.7
2018-08-18T07:18:50.628Z,20.7
2018-08-18T07:20:49.859Z,20.8
2018-08-18T07:22:49.983Z,20.9
2018-08-18T07:24:50.011Z,21.0
2018-08-18T07:26:50.271Z,21.0
2018-08-18T07:28:51.558Z,21.0
2018-08-18T07:30:50.132Z,21.1
2018-08-18T07:32:50.181Z,21.2
2018-08-18T07:34:50.576Z,21.3
2018-08-18T07:36:49.854Z,21.3
2018-08-18T07:38:50.105Z,21.4
2018-08-18T07:40:50.269Z,21.4
2018-08-18T07:42:50.368Z,21.5
2018-08-18T07:44:50.353Z,21.6
2018-08-18T07:46:50.698Z,21.6
2018-08-18T07:48:49.767Z,21.6
2018-08-18T07:50:50.057Z,21.8
2018-08-18T07:52:50.132Z,21.8
2018-08-18T07:54:50.185Z,21.8
2018-08-18T07:56:50.479Z,21.9
2018-08-18T07:58:50.615Z,21.9
2018-08-18T08:00:49.799Z,22.0
2018-08-18T08:02:49.789Z,22.0
2018-08-18T08:04:50.401Z,22.0
2018-08-18T08:06:50.661Z,22.0
2018-08-18T08:08:49.827Z,22.1
2018-08-18T08:10:50.287Z,22.2
2018-08-18T08:12:50.515Z,22.2
2018-08-18T08:14:50.638Z,22.2
2018-08-18T08:16:50.210Z,22.3
2018-08-18T08:18:50.381Z,22.3
2018-08-18T08:20:50.509Z,22.4
2018-08-18T08:22:50.577Z,22.5
2018-08-18T08:24:50.664Z,22.5
2018-08-18T08:26:49.977Z,22.5
2018-08-18T08:28:50.052Z,22.6
2018-08-18T08:30:50.137Z,22.6
2018-08-18T08:32:50.174Z,22.7
2018-08-18T08:34:49.714Z,22.7
2018-08-18T08:36:50.647Z,22.8
2018-08-18T08:38:50.071Z,22.9
2018-08-18T08:40:50.423Z,22.9
2018-08-18T08:42:50.650Z,23.0
2018-08-18T08:44:49.835Z,23.0
2018-08-18T08:46:50.447Z,23.1
2018-08-18T08:48:50.572Z,23.2
2018-08-18T08:50:50.697Z,23.2
2018-08-18T08:52:49.685Z,23.3
2018-08-18T08:54:49.935Z,23.3
2018-08-18T08:56:50.355Z,23.4
2018-08-18T08:58:50.838Z,23.4
2018-08-18T09:00:50.137Z,23.5
2018-08-18T09:02:50.233Z,23.6
2018-08-18T09:04:50.642Z,23.6
2018-08-18T09:06:49.819Z,23.7
2018-08-18T09:08:50.019Z,23.8
2018-08-18T09:10:50.190Z,23.8
2018-08-18T09:12:50.335Z,23.9
2018-08-18T09:14:50.354Z,23.9
2018-08-18T09:16:50.657Z,24.0
2018-08-18T09:18:49.806Z,24.2
2018-08-18T09:20:49.986Z,24.2
2018-08-18T09:22:50.202Z,24.2
2018-08-18T09:24:50.245Z,24.3
2018-08-18T09:26:50.554Z,24.4
2018-08-18T09:28:50.657Z,24.4
2018-08-18T09:30:49.747Z,24.4
2018-08-18T09:32:49.805Z,24.6
2018-08-18T09:34:50.480Z,24.6
2018-08-18T09:36:49.852Z,24.7
2018-08-18T09:38:50.122Z,24.8
2018-08-18T09:40:50.272Z,24.8
2018-08-18T09:42:50.564Z,24.8
2018-08-18T09:44:50.563Z,24.9
2018-08-18T09:46:49.945Z,25.0
2018-08-18T09:48:50.143Z,25.1
2018-08-18T09:50:50.212Z,25.1
2018-08-18T09:52:50.407Z,25.2
2018-08-18T09:54:50.459Z,25.2
2018-08-18T09:56:49.794Z,25.3
2018-08-18T09:58:50.034Z,25.3
2018-08-18T10:00:50.098Z,25.3
2018-08-18T10:02:50.268Z,25.4
2018-08-18T10:04:49.769Z,25.5
2018-08-18T10:06:50.264Z,25.5
2018-08-18T10:08:50.393Z,25.5
2018-08-18T10:10:50.385Z,25.6
2018-08-18T10:12:50.363Z,25.7
2018-08-18T10:14:50.489Z,25.7
2018-08-18T10:16:50.034Z,25.7
2018-08-18T10:18:50.137Z,25.8
2018-08-18T10:20:50.127Z,25.9
2018-08-18T10:22:50.194Z,26.0
2018-08-18T10:24:50.300Z,26.1
2018-08-18T10:26:50.554Z,26.1
2018-08-18T10:28:50.610Z,26.2
2018-08-18T10:30:50.544Z,26.3
2018-08-18T10:32:50.617Z,26.4
2018-08-18T10:34:50.224Z,26.4
2018-08-18T10:36:50.498Z,26.4
2018-08-18T10:38:50.600Z,26.5
2018-08-18T10:40:50.631Z,26.5
2018-08-18T10:42:50.686Z,26.6
2018-08-18T10:44:49.767Z,26.6
2018-08-18T10:46:50.060Z,26.6
2018-08-18T10:48:50.103Z,26.7
2018-08-18T10:50:50.114Z,26.8
2018-08-18T10:52:50.299Z,26.8
2018-08-18T10:54:50.289Z,26.8
2018-08-18T10:56:50.642Z,26.8
2018-08-18T10:58:49.845Z,26.8
2018-08-18T11:00:50.461Z,26.9
2018-08-18T11:02:50.503Z,26.9
2018-08-18T11:04:50.056Z,26.9
2018-08-18T11:06:50.517Z,27.0
2018-08-18T11:08:50.631Z,27.0
2018-08-18T11:10:49.763Z,27.0
2018-08-18T11:12:49.799Z,27.2
2018-08-18T11:14:49.856Z,27.2
2018-08-18T11:16:50.182Z,27.3
2018-08-18T11:18:50.305Z,27.3
2018-08-18T11:20:50.435Z,27.4
2018-08-18T11:22:50.478Z,27.5
2018-08-18T11:24:50.615Z,27.5
2018-08-18T11:26:49.979Z,27.6
2018-08-18T11:28:51.401Z,27.6
2018-08-18T11:30:49.764Z,27.6
2018-08-18T11:32:49.880Z,27.7
2018-08-18T11:34:50.541Z,27.7
2018-08-18T11:36:49.884Z,27.8
2018-08-18T11:38:49.971Z,27.8
2018-08-18T11:40:50.084Z,27.8
2018-08-18T11:42:50.127Z,27.9
2018-08-18T11:44:50.317Z,27.9
2018-08-18T11:46:50.799Z,28.0
2018-08-18T11:48:50.000Z,28.1
2018-08-18T11:50:50.029Z,28.2
2018-08-18T11:52:50.035Z,28.2
2018-08-18T11:54:50.173Z,28.2
2018-08-18T11:56:50.533Z,28.3
2018-08-18T11:58:50.661Z,28.3
2018-08-18T12:00:50.700Z,28.3
2018-08-18T12:02:49.743Z,28.4
2018-08-18T12:04:50.479Z,28.4
2018-08-18T12:06:49.935Z,28.4
2018-08-18T12:08:50.015Z,28.5
2018-08-18T12:10:51.337Z,28.5
2018-08-18T12:12:49.759Z,28.5
2018-08-18T12:14:49.922Z,28.6
2018-08-18T12:16:50.246Z,28.6
2018-08-18T12:18:50.292Z,28.7
2018-08-18T12:20:50.314Z,28.7
2018-08-18T12:22:50.317Z,28.7
2018-08-18T12:24:50.532Z,28.7
2018-08-18T12:26:49.732Z,28.8
2018-08-18T12:28:49.826Z,28.8
2018-08-18T12:30:49.785Z,28.8
2018-08-18T12:32:49.845Z,28.9
2018-08-18T12:34:50.519Z,29.0
2018-08-18T12:36:50.259Z,29.0
2018-08-18T12:38:50.527Z,29.0
2018-08-18T12:40:50.514Z,29.1
2018-08-18T12:42:50.554Z,29.2
2018-08-18T12:44:49.891Z,29.3
2018-08-18T12:46:50.252Z,29.4
2018-08-18T12:48:50.627Z,29.4
2018-08-18T12:50:50.571Z,29.4
2018-08-18T12:52:50.665Z,29.5
2018-08-18T12:54:49.804Z,29.6
2018-08-18T12:56:50.068Z,29.6
2018-08-18T12:58:50.477Z,29.6
2018-08-18T13:00:50.548Z,29.6
2018-08-18T13:02:50.661Z,29.6
2018-08-18T13:04:50.492Z,29.7
2018-08-18T13:06:49.884Z,29.7
2018-08-18T13:08:49.809Z,29.8
2018-08-18T13:10:49.877Z,29.8
2018-08-18T13:12:49.982Z,29.9
2018-08-18T13:14:50.098Z,29.9
2018-08-18T13:16:50.458Z,29.9
2018-08-18T13:18:50.538Z,29.9
2018-08-18T13:20:51.073Z,29.9
2018-08-18T13:22:50.275Z,30.0
2018-08-18T13:24:50.523Z,30.0
2018-08-18T13:26:49.728Z,30.0
2018-08-18T13:28:49.747Z,30.0
2018-08-18T13:30:49.948Z,30.0
2018-08-18T13:32:50.162Z,30.0
2018-08-18T13:34:49.722Z,30.2
2018-08-18T13:36:49.920Z,30.2
2018-08-18T13:38:49.982Z,30.1
2018-08-18T13:40:50.042Z,30.0
2018-08-18T13:42:50.114Z,30.0
2018-08-18T13:44:50.273Z,30.0
2018-08-18T13:46:51.057Z,30.0
2018-08-18T13:48:50.624Z,30.2
2018-08-18T13:50:49.758Z,30.2
2018-08-18T13:52:50.258Z,30.3
2018-08-18T13:54:49.773Z,30.3
2018-08-18T13:56:50.167Z,30.4
2018-08-18T13:58:50.562Z,30.4
2018-08-18T14:00:50.039Z,30.4
2018-08-18T14:02:50.220Z,30.4
2018-08-18T14:04:49.835Z,30.4
2018-08-18T14:06:50.112Z,30.4
2018-08-18T14:08:50.149Z,30.4
2018-08-18T14:10:50.473Z,30.4
2018-08-18T14:12:49.785Z,30.5
2018-08-18T14:14:49.841Z,30.6
2018-08-18T14:16:50.164Z,30.6
2018-08-18T14:18:50.280Z,30.6
2018-08-18T14:20:50.406Z,30.7
2018-08-18T14:22:50.476Z,30.7
2018-08-18T14:24:50.552Z,30.8
2018-08-18T14:26:49.882Z,30.8
2018-08-18T14:28:50.079Z,30.8
2018-08-18T14:30:50.145Z,30.8
2018-08-18T14:32:50.169Z,30.9
2018-08-18T14:34:50.683Z,30.9
2018-08-18T14:36:50.114Z,30.8
2018-08-18T14:38:50.325Z,30.9
2018-08-18T14:40:50.640Z,30.9
2018-08-18T14:42:50.675Z,30.9
2018-08-18T14:44:50.261Z,30.9
2018-08-18T14:46:50.433Z,30.9
2018-08-18T14:48:50.659Z,30.9
2018-08-18T14:50:49.702Z,30.9
2018-08-18T14:52:49.728Z,30.9
2018-08-18T14:54:49.826Z,30.9
2018-08-18T14:56:50.165Z,31.0
2018-08-18T14:58:50.192Z,31.0
2018-08-18T15:00:50.206Z,31.1
2018-08-18T15:02:50.281Z,31.1
2018-08-18T15:04:49.865Z,31.1
2018-08-18T15:06:50.256Z,31.2
2018-08-18T15:08:50.655Z,31.2
2018-08-18T15:10:49.795Z,31.2
2018-08-18T15:12:49.781Z,31.2
2018-08-18T15:14:49.891Z,31.2
2018-08-18T15:16:50.196Z,31.1
2018-08-18T15:18:50.265Z,31.1
2018-08-18T15:20:50.302Z,31.1
2018-08-18T15:22:50.386Z,31.1
2018-08-18T15:24:50.505Z,31.0
2018-08-18T15:26:49.881Z,31.0
2018-08-18T15:28:49.930Z,31.0
2018-08-18T15:30:50.035Z,31.0
2018-08-18T15:32:50.081Z,30.9
2018-08-18T15:34:50.668Z,30.8
2018-08-18T15:36:50.042Z,30.7
2018-08-18T15:38:49.975Z,30.7
2018-08-18T15:40:50.171Z,30.7
2018-08-18T15:42:50.191Z,34.18
2018-08-18T15:44:50.292Z,30.6
2018-08-18T15:46:50.600Z,30.6
2018-08-18T15:48:49.715Z,30.6
2018-08-18T15:50:49.749Z,30.6
2018-08-18T15:52:49.903Z,30.5
2018-08-18T15:54:49.979Z,30.5
2018-08-18T15:56:50.282Z,30.5
2018-08-18T15:58:50.296Z,30.5
2018-08-18T16:00:50.600Z,30.3
2018-08-18T16:02:49.754Z,30.2
2018-08-18T16:04:50.418Z,30.2
2018-08-18T16:06:49.784Z,30.2
2018-08-18T16:08:49.775Z,30.2
2018-08-18T16:10:49.889Z,30.2
2018-08-18T16:12:50.017Z,30.0
2018-08-18T16:14:50.158Z,29.9
2018-08-18T16:16:50.454Z,29.8
2018-08-18T16:18:49.706Z,29.8
2018-08-18T16:20:49.791Z,29.8
2018-08-18T16:22:49.903Z,29.7
2018-08-18T16:24:50.073Z,29.7
2018-08-18T16:26:50.361Z,29.7
2018-08-18T16:28:50.322Z,29.7
2018-08-18T16:30:50.439Z,29.6
2018-08-18T16:32:50.527Z,29.6
2018-08-18T16:34:50.169Z,29.6
2018-08-18T16:36:50.491Z,29.6
2018-08-18T16:38:50.489Z,29.5
2018-08-18T16:40:50.631Z,29.4
2018-08-18T16:42:51.127Z,29.4
2018-08-18T16:44:50.333Z,29.4
2018-08-18T16:46:50.628Z,29.4
2018-08-18T16:48:50.701Z,29.3
2018-08-18T16:50:49.870Z,29.3
2018-08-18T16:52:50.085Z,29.2
2018-08-18T16:54:50.105Z,29.2
2018-08-18T16:56:50.290Z,29.11
2018-08-18T16:58:50.308Z,29.07
2018-08-18T17:00:50.502Z,28.96
2018-08-18T17:02:50.656Z,28.89
2018-08-18T17:04:50.265Z,28.88
2018-08-18T17:06:49.740Z,28.82
2018-08-18T17:08:49.768Z,28.81
2018-08-18T17:10:49.841Z,28.83
2018-08-18T17:12:50.095Z,28.82
2018-08-18T17:14:50.114Z,28.78
2018-08-18T17:16:50.390Z,28.75
2018-08-18T17:18:50.398Z,28.72
2018-08-18T17:20:49.809Z,28.59
2018-08-18T17:22:49.911Z,28.59
2018-08-18T17:24:49.885Z,28.41
2018-08-18T17:26:50.053Z,28.38
2018-08-18T17:28:50.192Z,28.35
2018-08-18T17:30:50.323Z,28.29
2018-08-18T17:32:50.473Z,28.22
2018-08-18T17:34:49.844Z,28.17
2018-08-18T17:36:49.982Z,28.17
2018-08-18T17:38:50.087Z,28.09
2018-08-18T17:40:50.206Z,28.06
2018-08-18T17:42:50.250Z,27.93
2018-08-18T17:44:50.234Z,27.86
2018-08-18T17:46:50.579Z,27.82
2018-08-18T17:48:49.764Z,27.74
2018-08-18T17:50:49.848Z,27.71
2018-08-18T17:52:49.864Z,27.63
2018-08-18T17:54:49.884Z,27.60
2018-08-18T17:56:50.191Z,27.55
2018-08-18T17:58:50.516Z,27.39
2018-08-18T18:00:49.722Z,27.35
2018-08-18T18:02:49.819Z,27.27
2018-08-18T18:04:50.547Z,27.21
2018-08-18T18:06:49.930Z,27.12
2018-08-18T18:08:50.102Z,27.03
2018-08-18T18:10:50.173Z,26.98
2018-08-18T18:12:50.281Z,26.86
2018-08-18T18:14:50.361Z,26.82
2018-08-18T18:16:50.558Z,26.68
2018-08-18T18:18:49.774Z,26.63
2018-08-18T18:20:49.739Z,26.59
2018-08-18T18:22:50.429Z,26.51
2018-08-18T18:24:50.580Z,26.47
2018-08-18T18:26:49.930Z,26.43
2018-08-18T18:28:49.938Z,26.35
2018-08-18T18:30:50.043Z,26.30
2018-08-18T18:32:50.158Z,26.18
2018-08-18T18:34:49.898Z,26.11
2018-08-18T18:36:50.120Z,26.03
2018-08-18T18:38:50.172Z,25.93
2018-08-18T18:40:50.269Z,25.84
2018-08-18T18:42:50.473Z,25.73
2018-08-18T18:44:50.543Z,25.64
2018-08-18T18:46:49.786Z,25.60
2018-08-18T18:48:49.761Z,25.54
2018-08-18T18:50:49.893Z,25.51
2018-08-18T18:52:50.154Z,25.46
2018-08-18T18:54:50.223Z,25.40
2018-08-18T18:56:50.419Z,25.35
2018-08-18T18:58:49.740Z,25.33
2018-08-18T19:00:49.909Z,25.29
2018-08-18T19:02:50.089Z,25.25
2018-08-18T19:04:49.721Z,25.13
2018-08-18T19:06:50.032Z,25.04
2018-08-18T19:08:50.075Z,25.01
2018-08-18T19:10:50.287Z,24.93
2018-08-18T19:12:50.416Z,24.87
2018-08-18T19:14:50.444Z,24.87
2018-08-18T19:16:49.735Z,24.81
2018-08-18T19:18:50.052Z,24.73
2018-08-18T19:20:50.219Z,24.66
2018-08-18T19:22:50.275Z,24.54
2018-08-18T19:24:50.312Z,24.50
2018-08-18T19:26:50.701Z,24.41
2018-08-18T19:28:49.799Z,24.37
2018-08-18T19:30:50.024Z,24.24
2018-08-18T19:32:50.126Z,24.14
2018-08-18T19:34:50.663Z,24.10
2018-08-18T19:36:50.086Z,24.04
2018-08-18T19:38:50.234Z,23.99
2018-08-18T19:40:50.888Z,23.90
2018-08-18T19:42:50.223Z,23.82
2018-08-18T19:44:50.229Z,23.79
2018-08-18T19:46:50.576Z,23.74
2018-08-18T19:48:49.804Z,23.75
2018-08-18T19:50:49.830Z,23.83
2018-08-18T19:52:49.771Z,23.83
2018-08-18T19:54:49.810Z,23.73
2018-08-18T19:56:50.353Z,23.67
2018-08-18T19:58:50.462Z,23.57
2018-08-18T20:00:50.511Z,23.51
2018-08-18T20:02:50.561Z,23.42
2018-08-18T20:04:50.640Z,23.33
2018-08-18T20:06:50.243Z,23.24
2018-08-18T20:08:50.312Z,23.17
2018-08-18T20:10:50.314Z,23.09
2018-08-18T20:12:50.328Z,22.99
2018-08-18T20:14:50.458Z,22.96
2018-08-18T20:16:49.785Z,22.86
2018-08-18T20:18:49.880Z,22.86
2018-08-18T20:20:49.909Z,22.73
2018-08-18T20:22:50.142Z,22.69
2018-08-18T20:24:50.857Z,22.60
2018-08-18T20:26:50.238Z,22.57
2018-08-18T20:28:50.232Z,22.51
2018-08-18T20:30:50.329Z,22.49
2018-08-18T20:32:50.496Z,22.47
2018-08-18T20:34:50.181Z,22.39
2018-08-18T20:36:50.482Z,22.33
2018-08-18T20:38:50.443Z,22.26
2018-08-18T20:40:50.490Z,22.23
2018-08-18T20:42:50.643Z,22.17
2018-08-18T20:44:50.291Z,22.15
2018-08-18T20:46:50.527Z,22.15
2018-08-18T20:48:51.027Z,22.11
2018-08-18T20:50:50.140Z,22.03
2018-08-18T20:52:50.350Z,22.00
2018-08-18T20:54:50.460Z,21.92
2018-08-18T20:56:49.934Z,21.90
2018-08-18T20:58:50.030Z,21.84
2018-08-18T21:00:50.213Z,21.80
2018-08-18T21:02:50.291Z,21.82
2018-08-18T21:04:49.878Z,21.96
2018-08-18T21:06:50.597Z,22.06
2018-08-18T21:08:49.955Z,22.07
2018-08-18T21:10:50.609Z,22.21
2018-08-18T21:12:50.105Z,22.21
2018-08-18T21:14:50.435Z,22.27
2018-08-18T21:16:49.775Z,22.29
2018-08-18T21:18:49.933Z,22.3
2018-08-18T21:20:50.667Z,22.31
2018-08-18T21:22:50.071Z,22.27
2018-08-18T21:24:50.119Z,22.21
2018-08-18T21:26:50.393Z,22.16
2018-08-18T21:28:50.480Z,22.11
2018-08-18T21:30:50.701Z,22.06
2018-08-18T21:32:49.800Z,22.04
2018-08-18T21:34:50.517Z,22.08
2018-08-18T21:36:50.024Z,22.11
2018-08-18T21:38:50.154Z,22.10
2018-08-18T21:40:50.326Z,22.10
2018-08-18T21:42:50.404Z,22.08
2018-08-18T21:44:50.504Z,22.06
2018-08-18T21:46:49.984Z,22.00
2018-08-18T21:48:50.139Z,21.98
2018-08-18T21:50:49.787Z,21.89
2018-08-18T21:52:49.937Z,21.83
2018-08-18T21:54:50.051Z,21.70
2018-08-18T21:56:50.512Z,21.61
2018-08-18T21:58:49.819Z,21.53
2018-08-18T22:00:49.948Z,21.51
2018-08-18T22:02:49.879Z,21.56
2018-08-18T22:04:50.446Z,21.62
2018-08-18T22:06:50.688Z,21.63
2018-08-18T22:08:49.804Z,21.64
2018-08-18T22:10:50.132Z,21.63
2018-08-18T22:12:50.314Z,21.63
2018-08-18T22:14:50.373Z,21.63
2018-08-18T22:16:49.707Z,21.59
2018-08-18T22:18:49.834Z,21.56
2018-08-18T22:20:49.988Z,21.52
2018-08-18T22:22:50.516Z,21.47
2018-08-18T22:24:49.740Z,21.41
2018-08-18T22:26:50.049Z,21.36
2018-08-18T22:28:50.151Z,21.33
2018-08-18T22:30:50.263Z,21.31
2018-08-18T22:32:50.378Z,21.32
2018-08-18T22:34:50.049Z,21.29
2018-08-18T22:36:50.387Z,21.26
2018-08-18T22:38:50.448Z,21.17
2018-08-18T22:40:50.588Z,21.14
2018-08-18T22:42:50.723Z,21.05
2018-08-18T22:44:49.898Z,20.98
2018-08-18T22:46:50.291Z,20.91
2018-08-18T22:48:50.730Z,20.82
2018-08-18T22:50:50.005Z,20.79
2018-08-18T22:52:50.062Z,20.76
2018-08-18T22:54:50.147Z,20.75
2018-08-18T22:56:50.542Z,20.69
2018-08-18T22:58:50.667Z,20.65
2018-08-18T23:00:49.720Z,20.63
2018-08-18T23:02:49.761Z,20.65
2018-08-18T23:04:50.433Z,20.66
2018-08-18T23:06:49.801Z,20.63
2018-08-18T23:08:50.032Z,20.61
2018-08-18T23:10:50.085Z,20.58
2018-08-18T23:12:50.171Z,20.55
2018-08-18T23:14:50.351Z,20.51
2018-08-18T23:16:49.954Z,20.41
2018-08-18T23:18:50.196Z,20.38
2018-08-18T23:20:50.224Z,20.37
2018-08-18T23:22:50.345Z,20.37
2018-08-18T23:24:49.954Z,20.38
2018-08-18T23:26:50.401Z,20.37
2018-08-18T23:28:50.571Z,20.37
2018-08-18T23:30:50.643Z,20.41
2018-08-18T23:32:50.683Z,20.43
2018-08-18T23:34:50.311Z,20.40
2018-08-18T23:36:50.727Z,20.37
2018-08-18T23:38:50.096Z,20.29
2018-08-18T23:40:50.174Z,20.24
2018-08-18T23:42:50.321Z,20.17
2018-08-18T23:44:50.421Z,20.14
2018-08-18T23:46:49.892Z,20.07
2018-08-18T23:48:50.216Z,20.05
2018-08-18T23:50:50.353Z,20.00
2018-08-18T23:52:50.506Z,19.97
2018-08-18T23:54:50.544Z,19.93
2018-08-18T23:56:49.834Z,19.86
2018-08-18T23:58:49.979Z,19.79
